createdAt,value
2016-11-13T00:00:40.045Z,3.7
2016-11-13T00:01:54.253Z,3.68
2016-11-13T00:03:09.192Z,3.67
2016-11-13T00:04:23.088Z,3.66
2016-11-13T00:05:38.565Z,3.66
2016-11-13T00:06:53.160Z,3.67
2016-11-13T00:08:10.387Z,3.68
2016-11-13T00:09:25.581Z,3.64
2016-11-13T00:10:40.360Z,3.62
2016-11-13T00:11:54.711Z,3.65
2016-11-13T00:13:09.206Z,3.64
2016-11-13T00:14:23.485Z,3.64
2016-11-13T00:15:37.178Z,3.63
2016-11-13T00:16:51.620Z,3.63
2016-11-13T00:18:05.939Z,3.6
2016-11-13T00:19:20.202Z,3.58
2016-11-13T00:20:34.395Z,3.56
2016-11-13T00:21:47.903Z,3.58
2016-11-13T00:23:01.668Z,3.6
2016-11-13T00:24:15.515Z,3.63
2016-11-13T00:25:29.337Z,3.63
2016-11-13T00:26:42.885Z,3.63
2016-11-13T00:27:56.366Z,3.65
2016-11-13T00:29:10.224Z,3.66
2016-11-13T00:30:24.084Z,3.69
2016-11-13T00:31:38.054Z,3.74
2016-11-13T00:32:52.696Z,3.78
2016-11-13T00:34:07.336Z,3.78
2016-11-13T00:35:21.182Z,3.79
2016-11-13T00:36:35.032Z,3.79
2016-11-13T00:37:49.115Z,3.7
2016-11-13T00:39:03.429Z,3.64
2016-11-13T00:40:17.538Z,3.61
2016-11-13T00:41:31.451Z,3.61
2016-11-13T00:43:00.297Z,3.61
2016-11-13T00:44:30.090Z,3.6
2016-11-13T00:45:43.798Z,3.6
2016-11-13T00:46:57.403Z,3.58
2016-11-13T00:48:11.155Z,3.57
2016-11-13T00:49:25.357Z,3.55
2016-11-13T00:50:40.120Z,3.54
2016-11-13T00:51:54.368Z,3.56
2016-11-13T00:53:08.689Z,3.59
2016-11-13T00:54:23.470Z,3.61
2016-11-13T00:55:37.970Z,3.6
2016-11-13T00:56:51.982Z,3.56
2016-11-13T00:58:06.609Z,3.57
2016-11-13T00:59:21.532Z,3.58
2016-11-13T01:00:35.525Z,3.59
2016-11-13T01:02:04.207Z,3.62
2016-11-13T01:03:18.426Z,3.65
2016-11-13T01:04:32.451Z,3.66
2016-11-13T01:05:46.471Z,3.63
2016-11-13T01:07:00.680Z,3.64
2016-11-13T01:08:14.351Z,3.65
2016-11-13T01:09:28.594Z,3.64
2016-11-13T01:10:42.848Z,3.6
2016-11-13T01:11:56.329Z,3.54
2016-11-13T01:13:10.494Z,3.51
2016-11-13T01:14:24.473Z,3.45
2016-11-13T01:15:38.812Z,3.4
2016-11-13T01:16:52.567Z,3.36
2016-11-13T01:18:06.425Z,3.32
2016-11-13T01:19:20.496Z,3.3
2016-11-13T01:20:34.504Z,3.28
2016-11-13T01:21:48.638Z,3.27
2016-11-13T01:23:02.569Z,3.26
2016-11-13T01:24:16.512Z,3.22
2016-11-13T01:25:33.211Z,3.18
2016-11-13T01:26:47.217Z,3.15
2016-11-13T01:28:00.792Z,3.11
2016-11-13T01:29:14.844Z,3.07
2016-11-13T01:30:28.682Z,3.05
2016-11-13T01:31:42.594Z,3.07
2016-11-13T01:32:56.413Z,3.07
2016-11-13T01:34:10.335Z,3.08
2016-11-13T01:35:24.577Z,3.05
2016-11-13T01:36:38.399Z,3.03
2016-11-13T01:37:51.997Z,2.99
2016-11-13T01:39:06.203Z,3
2016-11-13T01:40:19.809Z,3.01
2016-11-13T01:41:33.592Z,3
2016-11-13T01:42:47.528Z,3
2016-11-13T01:44:01.502Z,3.04
2016-11-13T01:45:14.972Z,3.07
2016-11-13T01:46:28.747Z,3.07
2016-11-13T01:47:43.073Z,3.07
2016-11-13T01:48:56.899Z,3.04
2016-11-13T01:50:11.352Z,3.07
2016-11-13T01:53:14.405Z,3.2
2016-11-13T01:54:28.197Z,3.27
2016-11-13T01:55:42.129Z,3.34
2016-11-13T01:56:55.827Z,3.41
2016-11-13T01:58:09.870Z,3.48
2016-11-13T01:59:23.716Z,3.53
2016-11-13T02:00:37.925Z,3.55
2016-11-13T02:01:52.390Z,3.55
2016-11-13T02:03:08.777Z,3.55
2016-11-13T02:04:22.906Z,3.56
2016-11-13T02:05:36.785Z,3.58
2016-11-13T02:06:50.857Z,3.6
2016-11-13T02:08:04.746Z,3.62
2016-11-13T02:09:18.569Z,3.62
2016-11-13T02:10:32.879Z,3.61
2016-11-13T02:11:46.766Z,3.56
2016-11-13T02:13:00.496Z,3.53
2016-11-13T02:14:14.669Z,3.52
2016-11-13T02:15:28.669Z,3.49
2016-11-13T02:16:42.332Z,3.51
2016-11-13T02:17:57.005Z,3.55
2016-11-13T02:19:10.757Z,3.61
2016-11-13T02:20:24.934Z,3.63
2016-11-13T02:21:38.716Z,3.62
2016-11-13T02:22:53.254Z,3.61
2016-11-13T02:24:06.953Z,3.62
2016-11-13T02:25:20.978Z,3.64
2016-11-13T02:26:35.049Z,3.68
2016-11-13T02:27:50.672Z,3.7
2016-11-13T02:29:21.907Z,3.78
2016-11-13T02:30:36.400Z,3.82
2016-11-13T02:32:05.419Z,3.85
2016-11-13T02:33:19.259Z,3.85
2016-11-13T02:34:32.881Z,3.85
2016-11-13T02:35:46.900Z,3.83
2016-11-13T02:37:01.731Z,3.84
2016-11-13T02:38:15.784Z,3.82
2016-11-13T02:39:30.052Z,3.78
2016-11-13T02:40:43.717Z,3.76
2016-11-13T02:41:57.458Z,3.77
2016-11-13T02:43:11.673Z,3.76
2016-11-13T02:44:28.061Z,3.75
2016-11-13T02:45:41.810Z,3.79
2016-11-13T02:46:56.038Z,3.82
2016-11-13T02:48:09.976Z,3.79
2016-11-13T02:49:23.502Z,3.72
2016-11-13T02:50:37.495Z,3.68
2016-11-13T02:51:51.561Z,3.66
2016-11-13T02:53:05.635Z,3.67
2016-11-13T02:54:20.307Z,3.68
2016-11-13T02:55:34.651Z,3.67
2016-11-13T02:56:48.792Z,3.65
2016-11-13T02:58:03.405Z,3.67
2016-11-13T02:59:34.643Z,3.67
2016-11-13T03:01:00.555Z,3.66
2016-11-13T03:02:38.321Z,3.7
2016-11-13T03:04:01.689Z,3.66
2016-11-13T03:05:25.709Z,3.63
2016-11-13T03:06:52.090Z,3.61
2016-11-13T03:08:12.613Z,3.53
2016-11-13T03:09:33.036Z,3.46
2016-11-13T03:10:51.022Z,3.42
2016-11-13T03:12:08.404Z,3.38
2016-11-13T03:13:23.053Z,3.37
2016-11-13T03:14:37.028Z,3.36
2016-11-13T03:15:50.767Z,3.33
2016-11-13T03:17:04.586Z,3.31
2016-11-13T03:18:18.411Z,3.31
2016-11-13T03:19:32.655Z,3.29
2016-11-13T03:20:46.535Z,3.25
2016-11-13T03:22:00.436Z,3.26
2016-11-13T03:23:14.136Z,3.27
2016-11-13T03:24:28.116Z,3.3
2016-11-13T03:25:42.057Z,3.32
2016-11-13T03:26:56.049Z,3.29
2016-11-13T03:28:10.234Z,3.29
2016-11-13T03:29:26.351Z,3.3
2016-11-13T03:30:43.281Z,3.31
2016-11-13T03:32:02.978Z,3.34
2016-11-13T03:33:21.995Z,3.35
2016-11-13T03:34:51.158Z,3.35
2016-11-13T03:36:05.019Z,3.37
2016-11-13T03:37:18.819Z,3.37
2016-11-13T03:38:47.603Z,3.42
2016-11-13T03:40:01.297Z,3.46
2016-11-13T03:41:15.080Z,3.5
2016-11-13T03:42:29.586Z,3.47
2016-11-13T03:43:43.839Z,3.42
2016-11-13T03:44:57.369Z,3.43
2016-11-13T03:46:11.319Z,3.47
2016-11-13T03:47:25.234Z,3.49
2016-11-13T03:48:39.261Z,3.49
2016-11-13T03:49:53.297Z,3.51
2016-11-13T03:51:07.212Z,3.51
2016-11-13T03:52:21.351Z,3.53
2016-11-13T03:53:34.982Z,3.52
2016-11-13T03:54:48.844Z,3.49
2016-11-13T03:56:02.813Z,3.47
2016-11-13T03:57:16.678Z,3.46
2016-11-13T03:58:30.972Z,3.45
2016-11-13T03:59:44.572Z,3.44
2016-11-13T04:00:58.826Z,3.43
2016-11-13T04:02:13.578Z,3.41
2016-11-13T04:03:29.904Z,3.39
2016-11-13T04:04:44.043Z,3.38
2016-11-13T04:05:57.955Z,3.39
2016-11-13T04:07:12.332Z,3.4
2016-11-13T04:08:26.661Z,3.35
2016-11-13T04:09:40.823Z,3.31
2016-11-13T04:10:54.636Z,3.3
2016-11-13T04:12:08.561Z,3.3
2016-11-13T04:13:22.536Z,3.28
2016-11-13T04:14:36.416Z,3.25
2016-11-13T04:15:50.361Z,3.27
2016-11-13T04:17:04.540Z,3.3
2016-11-13T04:18:18.538Z,3.35
2016-11-13T04:19:32.993Z,3.39
2016-11-13T04:20:47.335Z,3.38
2016-11-13T04:22:01.615Z,3.42
2016-11-13T04:23:15.761Z,3.48
2016-11-13T04:24:30.244Z,3.51
2016-11-13T04:25:44.860Z,3.54
2016-11-13T04:26:58.535Z,3.59
2016-11-13T04:28:12.570Z,3.65
2016-11-13T04:29:41.176Z,3.68
2016-11-13T04:30:55.411Z,3.67
2016-11-13T04:32:09.238Z,3.66
2016-11-13T04:33:22.812Z,3.64
2016-11-13T04:34:36.716Z,3.59
2016-11-13T04:35:50.693Z,3.51
2016-11-13T04:37:04.912Z,3.46
2016-11-13T04:38:18.814Z,3.44
2016-11-13T04:39:32.737Z,3.47
2016-11-13T04:40:46.468Z,3.44
2016-11-13T04:42:00.801Z,3.37
2016-11-13T04:43:14.818Z,3.34
2016-11-13T04:44:28.672Z,3.3
2016-11-13T04:45:42.471Z,3.25
2016-11-13T04:46:56.388Z,3.2
2016-11-13T04:48:10.224Z,3.18
2016-11-13T04:49:24.784Z,3.2
2016-11-13T04:50:38.494Z,3.2
2016-11-13T04:51:52.309Z,3.23
2016-11-13T04:53:07.001Z,3.29
2016-11-13T04:54:21.564Z,3.33
2016-11-13T04:55:36.290Z,3.35
2016-11-13T04:56:50.120Z,3.34
2016-11-13T04:58:03.907Z,3.36
2016-11-13T04:59:17.576Z,3.36
2016-11-13T05:00:31.521Z,3.38
2016-11-13T05:01:46.148Z,3.4
2016-11-13T05:03:00.111Z,3.44
2016-11-13T05:04:13.972Z,3.47
2016-11-13T05:05:27.720Z,3.47
2016-11-13T05:06:41.561Z,3.46
2016-11-13T05:07:55.969Z,3.46
2016-11-13T05:09:09.896Z,3.46
2016-11-13T05:10:23.736Z,3.49
2016-11-13T05:11:37.618Z,3.45
2016-11-13T05:12:51.592Z,3.38
2016-11-13T05:14:05.844Z,3.36
2016-11-13T05:15:20.174Z,3.37
2016-11-13T05:16:34.135Z,3.41
2016-11-13T05:17:47.957Z,3.42
2016-11-13T05:19:01.743Z,3.4
2016-11-13T05:20:18.484Z,3.39
2016-11-13T05:21:32.702Z,3.39
2016-11-13T05:22:46.358Z,3.4
2016-11-13T05:24:00.292Z,3.41
2016-11-13T05:25:14.816Z,3.42
2016-11-13T05:26:28.914Z,3.42
2016-11-13T05:27:43.045Z,3.41
2016-11-13T05:28:56.903Z,3.42
2016-11-13T05:30:10.743Z,3.42
2016-11-13T05:31:24.884Z,3.47
2016-11-13T05:32:38.890Z,3.51
2016-11-13T05:33:53.041Z,3.49
2016-11-13T05:35:06.787Z,3.48
2016-11-13T05:36:20.422Z,3.51
2016-11-13T05:37:34.313Z,3.53
2016-11-13T05:38:48.388Z,3.54
2016-11-13T05:40:02.511Z,3.57
2016-11-13T05:41:16.393Z,3.57
2016-11-13T05:42:30.016Z,3.55
2016-11-13T05:43:44.029Z,3.56
2016-11-13T05:44:58.252Z,3.59
2016-11-13T05:46:12.304Z,3.62
2016-11-13T05:47:26.306Z,3.63
2016-11-13T05:48:40.042Z,3.6
2016-11-13T05:49:54.115Z,3.55
2016-11-13T05:51:08.327Z,3.44
2016-11-13T05:52:22.828Z,3.4
2016-11-13T05:53:51.660Z,3.35
2016-11-13T05:55:06.276Z,3.32
2016-11-13T05:56:20.394Z,3.31
2016-11-13T05:57:34.756Z,3.36
2016-11-13T05:58:48.921Z,3.43
2016-11-13T06:00:02.958Z,3.44
2016-11-13T06:01:16.693Z,3.5
2016-11-13T06:02:30.884Z,3.5
2016-11-13T06:03:45.055Z,3.51
2016-11-13T06:04:59.599Z,3.48
2016-11-13T06:06:13.469Z,3.48
2016-11-13T06:07:27.366Z,3.52
2016-11-13T06:08:41.295Z,3.6
2016-11-13T06:12:37.796Z,3.8
2016-11-13T06:13:51.672Z,3.86
2016-11-13T06:15:05.806Z,3.92
2016-11-13T06:16:19.602Z,3.93
2016-11-13T06:17:33.910Z,3.95
2016-11-13T06:18:47.727Z,3.97
2016-11-13T06:20:01.449Z,3.97
2016-11-13T06:21:15.187Z,3.97
2016-11-13T06:22:29.114Z,3.89
2016-11-13T06:23:43.406Z,3.79
2016-11-13T06:24:57.560Z,3.76
2016-11-13T06:26:11.718Z,3.78
2016-11-13T06:27:26.398Z,3.77
2016-11-13T06:28:40.480Z,3.73
2016-11-13T06:29:54.847Z,3.71
2016-11-13T06:31:08.472Z,3.71
2016-11-13T06:32:22.259Z,3.76
2016-11-13T06:33:36.541Z,3.81
2016-11-13T06:34:50.237Z,3.81
2016-11-13T06:36:04.839Z,3.81
2016-11-13T06:37:18.809Z,3.84
2016-11-13T06:38:35.169Z,3.88
2016-11-13T06:39:49.094Z,3.9
2016-11-13T06:41:03.127Z,3.9
2016-11-13T06:42:17.088Z,3.89
2016-11-13T06:43:31.056Z,3.9
2016-11-13T06:44:45.080Z,3.95
2016-11-13T06:46:13.965Z,4.07
2016-11-13T06:47:28.013Z,4.13
2016-11-13T06:48:42.224Z,4.02
2016-11-13T06:49:56.083Z,3.89
2016-11-13T06:51:10.119Z,3.82
2016-11-13T06:52:23.933Z,3.81
2016-11-13T06:53:38.140Z,3.86
2016-11-13T06:54:52.726Z,3.89
2016-11-13T06:56:06.682Z,3.94
2016-11-13T06:57:20.839Z,3.95
2016-11-13T06:58:35.106Z,3.96
2016-11-13T06:59:49.631Z,3.95
2016-11-13T07:01:04.133Z,3.92
2016-11-13T07:02:17.930Z,3.91
2016-11-13T07:03:31.884Z,3.91
2016-11-13T07:04:46.031Z,3.88
2016-11-13T07:05:59.947Z,3.87
2016-11-13T07:07:14.248Z,3.89
2016-11-13T07:08:28.219Z,3.94
2016-11-13T07:09:42.399Z,3.94
2016-11-13T07:10:56.499Z,3.91
2016-11-13T07:12:10.316Z,3.9
2016-11-13T07:13:25.712Z,3.88
2016-11-13T07:14:43.223Z,3.89
2016-11-13T07:15:57.034Z,3.9
2016-11-13T07:17:11.985Z,3.93
2016-11-13T07:18:25.833Z,3.96
2016-11-13T07:19:40.021Z,3.97
2016-11-13T07:20:53.979Z,3.96
2016-11-13T07:22:08.061Z,3.93
2016-11-13T07:23:23.137Z,3.92
2016-11-13T07:24:36.938Z,3.91
2016-11-13T07:25:51.490Z,3.93
2016-11-13T07:27:05.365Z,3.98
2016-11-13T07:28:19.211Z,3.95
2016-11-13T07:29:33.319Z,3.93
2016-11-13T07:30:46.847Z,3.96
2016-11-13T07:32:00.756Z,3.93
2016-11-13T07:33:14.538Z,3.92
2016-11-13T07:34:28.131Z,3.93
2016-11-13T07:35:57.118Z,4.01
2016-11-13T07:37:10.956Z,4.07
2016-11-13T07:38:25.101Z,4.14
2016-11-13T07:39:39.830Z,4.18
2016-11-13T07:40:54.043Z,4.21
2016-11-13T07:42:09.216Z,4.24
2016-11-13T07:43:23.345Z,4.27
2016-11-13T07:44:37.381Z,4.28
2016-11-13T07:45:51.005Z,4.31
2016-11-13T07:47:05.211Z,4.37
2016-11-13T07:48:33.945Z,4.4
2016-11-13T07:49:47.779Z,4.44
2016-11-13T07:51:01.708Z,4.5
2016-11-13T07:52:16.185Z,4.53
2016-11-13T07:53:30.206Z,4.56
2016-11-13T07:54:43.886Z,4.59
2016-11-13T07:56:00.560Z,4.62
2016-11-13T07:57:14.445Z,4.65
2016-11-13T07:58:28.897Z,4.68
2016-11-13T07:59:42.757Z,4.73
2016-11-13T08:00:56.633Z,4.77
2016-11-13T08:02:10.831Z,4.73
2016-11-13T08:03:25.626Z,4.66
2016-11-13T08:04:40.260Z,4.58
2016-11-13T08:05:54.305Z,4.52
2016-11-13T08:07:08.219Z,4.45
2016-11-13T08:08:22.150Z,4.43
2016-11-13T08:09:36.418Z,4.4
2016-11-13T08:10:50.671Z,4.4
2016-11-13T08:12:05.090Z,4.45
2016-11-13T08:13:19.171Z,4.49
2016-11-13T08:14:33.507Z,4.48
2016-11-13T08:15:47.662Z,4.52
2016-11-13T08:17:01.911Z,4.57
2016-11-13T08:18:16.135Z,4.6
2016-11-13T08:19:44.682Z,4.65
2016-11-13T08:20:58.768Z,4.74
2016-11-13T08:22:12.851Z,4.83
2016-11-13T08:23:27.093Z,4.86
2016-11-13T08:24:41.249Z,4.88
2016-11-13T08:25:55.548Z,4.86
2016-11-13T08:27:09.623Z,4.84
2016-11-13T08:30:57.191Z,5.05
2016-11-13T08:32:11.088Z,5.13
2016-11-13T08:33:24.976Z,5.17
2016-11-13T08:34:39.355Z,5.2
2016-11-13T08:35:53.327Z,5.24
2016-11-13T08:37:08.661Z,5.31
2016-11-13T08:38:23.394Z,5.36
2016-11-13T08:39:37.454Z,5.42
2016-11-13T08:42:20.260Z,5.61
2016-11-13T08:43:34.765Z,5.68
2016-11-13T08:44:48.750Z,5.75
2016-11-13T08:46:02.631Z,5.82
2016-11-13T08:47:16.163Z,5.89
2016-11-13T08:48:29.995Z,5.92
2016-11-13T08:49:44.428Z,5.88
2016-11-13T08:50:58.668Z,5.86
2016-11-13T08:52:12.408Z,5.8
2016-11-13T08:53:27.064Z,5.71
2016-11-13T08:54:42.421Z,5.67
2016-11-13T08:55:57.248Z,5.66
2016-11-13T08:57:12.141Z,5.68
2016-11-13T08:58:26.598Z,5.75
2016-11-13T08:59:40.153Z,5.74
2016-11-13T09:00:54.119Z,5.67
2016-11-13T09:02:09.190Z,5.64
2016-11-13T09:03:22.944Z,5.64
2016-11-13T09:04:37.219Z,5.64
2016-11-13T09:05:51.100Z,5.61
2016-11-13T09:07:04.988Z,5.61
2016-11-13T09:08:19.139Z,5.65
2016-11-13T09:09:32.979Z,5.69
2016-11-13T09:10:47.186Z,5.73
2016-11-13T09:12:01.534Z,5.71
2016-11-13T09:13:15.472Z,5.7
2016-11-13T09:14:31.736Z,5.71
2016-11-13T09:15:45.685Z,5.76
2016-11-13T09:16:59.792Z,5.83
2016-11-13T09:18:14.033Z,5.91
2016-11-13T09:19:27.925Z,5.99
2016-11-13T09:20:41.876Z,6.06
2016-11-13T09:21:55.989Z,6.16
2016-11-13T09:23:10.014Z,6.23
2016-11-13T09:24:24.250Z,6.24
2016-11-13T09:25:38.396Z,6.24
2016-11-13T09:26:52.409Z,6.23
2016-11-13T09:28:06.443Z,6.23
2016-11-13T09:29:21.034Z,6.19
2016-11-13T09:30:35.255Z,6.16
2016-11-13T09:31:49.307Z,6.15
2016-11-13T09:33:03.751Z,6.17
2016-11-13T09:34:17.655Z,6.2
2016-11-13T09:35:31.958Z,6.2
2016-11-13T09:36:45.917Z,6.24
2016-11-13T09:38:00.121Z,6.27
2016-11-13T09:39:14.384Z,6.31
2016-11-13T09:40:28.254Z,6.29
2016-11-13T09:41:42.032Z,6.23
2016-11-13T09:42:55.501Z,6.17
2016-11-13T09:44:09.167Z,6.15
2016-11-13T09:45:23.450Z,6.14
2016-11-13T09:46:37.317Z,6.19
2016-11-13T09:47:51.156Z,6.25
2016-11-13T09:49:04.623Z,6.26
2016-11-13T09:50:18.426Z,6.27
2016-11-13T09:51:32.570Z,6.3
2016-11-13T09:52:46.074Z,6.33
2016-11-13T09:54:00.087Z,6.32
2016-11-13T09:55:13.637Z,6.31
2016-11-13T09:56:27.519Z,6.33
2016-11-13T09:57:41.764Z,6.38
2016-11-13T09:58:55.541Z,6.45
2016-11-13T10:00:09.180Z,6.45
2016-11-13T10:01:23.193Z,6.39
2016-11-13T10:02:37.787Z,6.31
2016-11-13T10:03:52.774Z,6.27
2016-11-13T10:05:22.775Z,6.27
2016-11-13T10:06:36.761Z,6.31
2016-11-13T10:07:50.481Z,6.32
2016-11-13T10:09:04.835Z,6.3
2016-11-13T10:10:19.535Z,6.29
2016-11-13T10:11:33.605Z,6.3
2016-11-13T10:12:47.769Z,6.32
2016-11-13T10:14:02.388Z,6.36
2016-11-13T10:15:16.930Z,6.4
2016-11-13T10:16:31.320Z,6.47
2016-11-13T10:17:59.819Z,6.57
2016-11-13T10:19:13.788Z,6.61
2016-11-13T10:20:27.705Z,6.64
2016-11-13T10:21:41.841Z,6.68
2016-11-13T10:22:56.071Z,6.68
2016-11-13T10:24:09.863Z,6.65
2016-11-13T10:25:23.668Z,6.61
2016-11-13T10:26:37.743Z,6.59
2016-11-13T10:27:51.944Z,6.61
2016-11-13T10:29:06.107Z,6.68
2016-11-13T10:30:20.243Z,6.71
2016-11-13T10:31:36.620Z,6.72
2016-11-13T10:32:50.435Z,6.74
2016-11-13T10:34:04.700Z,6.73
2016-11-13T10:35:18.582Z,6.75
2016-11-13T10:36:32.573Z,6.8
2016-11-13T10:37:46.463Z,6.83
2016-11-13T10:39:00.147Z,6.83
2016-11-13T10:40:14.652Z,6.83
2016-11-13T10:41:28.975Z,6.85
2016-11-13T10:42:43.836Z,6.85
2016-11-13T10:43:57.825Z,6.9
2016-11-13T10:45:11.555Z,6.94
2016-11-13T10:46:25.489Z,6.98
2016-11-13T10:47:39.668Z,7.01
2016-11-13T10:48:53.716Z,7.09
2016-11-13T10:50:07.900Z,7.18
2016-11-13T10:51:21.499Z,7.2
2016-11-13T10:54:05.537Z,7.17
2016-11-13T10:55:19.330Z,7.21
2016-11-13T10:56:33.732Z,7.27
2016-11-13T10:57:48.094Z,7.34
2016-11-13T10:59:04.781Z,7.38
2016-11-13T11:00:19.185Z,7.39
2016-11-13T11:01:33.382Z,7.4
2016-11-13T11:02:48.518Z,7.33
2016-11-13T11:04:03.874Z,7.33
2016-11-13T11:05:18.727Z,7.35
2016-11-13T11:06:32.928Z,7.36
2016-11-13T11:07:46.976Z,7.31
2016-11-13T11:09:00.903Z,7.27
2016-11-13T11:10:15.000Z,7.26
2016-11-13T11:11:29.889Z,7.27
2016-11-13T11:12:44.313Z,7.26
2016-11-13T11:13:58.007Z,7.27
2016-11-13T11:15:11.887Z,7.23
2016-11-13T11:16:27.292Z,7.19
2016-11-13T11:17:41.810Z,7.18
2016-11-13T11:18:56.269Z,7.1
2016-11-13T11:20:25.251Z,6.99
2016-11-13T11:21:39.884Z,6.89
2016-11-13T11:22:54.280Z,6.88
2016-11-13T11:24:08.613Z,6.85
2016-11-13T11:25:22.771Z,6.81
2016-11-13T11:26:36.939Z,6.79
2016-11-13T11:27:52.382Z,6.81
2016-11-13T11:29:06.812Z,6.83
2016-11-13T11:30:35.412Z,6.89
2016-11-13T11:31:51.117Z,6.99
2016-11-13T11:33:04.745Z,7.04
2016-11-13T11:34:33.939Z,7.12
2016-11-13T11:37:18.747Z,7.25
2016-11-13T11:38:33.305Z,7.29
2016-11-13T11:39:47.497Z,7.35
2016-11-13T11:41:01.803Z,7.39
2016-11-13T11:42:15.625Z,7.43
2016-11-13T11:43:30.983Z,7.47
2016-11-13T11:44:46.351Z,7.52
2016-11-13T11:46:00.791Z,7.59
2016-11-13T11:47:14.554Z,7.62
2016-11-13T11:48:28.603Z,7.67
2016-11-13T11:50:00.637Z,7.78
2016-11-13T11:51:14.649Z,7.84
2016-11-13T11:52:28.545Z,7.87
2016-11-13T11:53:42.953Z,7.85
2016-11-13T11:55:11.716Z,7.78
2016-11-13T11:57:56.141Z,7.83
2016-11-13T11:59:11.007Z,7.84
2016-11-13T12:00:26.603Z,7.76
2016-11-13T12:01:42.197Z,7.76
2016-11-13T12:02:56.964Z,7.76
2016-11-13T12:04:11.960Z,7.76
2016-11-13T12:05:26.687Z,7.77
2016-11-13T12:06:41.357Z,7.76
2016-11-13T12:07:56.261Z,7.75
2016-11-13T12:09:10.155Z,7.71
2016-11-13T12:10:24.397Z,7.64
2016-11-13T12:11:39.056Z,7.6
2016-11-13T12:12:53.480Z,7.6
2016-11-13T12:14:09.174Z,7.59
2016-11-13T12:15:23.078Z,7.55
2016-11-13T12:16:37.088Z,7.48
2016-11-13T12:17:51.076Z,7.4
2016-11-13T12:19:20.781Z,7.38
2016-11-13T12:20:50.089Z,7.38
2016-11-13T12:22:04.014Z,7.37
2016-11-13T12:23:18.141Z,7.38
2016-11-13T12:24:46.634Z,7.45
2016-11-13T12:26:00.429Z,7.52
2016-11-13T12:27:14.628Z,7.58
2016-11-13T12:28:28.796Z,7.57
2016-11-13T12:29:42.747Z,7.56
2016-11-13T12:30:56.318Z,7.51
2016-11-13T12:32:10.243Z,7.47
2016-11-13T12:33:24.245Z,7.44
2016-11-13T12:34:38.592Z,7.39
2016-11-13T12:35:52.763Z,7.34
2016-11-13T12:37:06.655Z,7.31
2016-11-13T12:38:20.671Z,7.26
2016-11-13T12:39:35.052Z,7.23
2016-11-13T12:44:01.432Z,7.14
2016-11-13T12:45:15.710Z,7.06
2016-11-13T12:46:29.842Z,7.03
2016-11-13T12:47:44.021Z,7
2016-11-13T12:48:57.991Z,6.93
2016-11-13T12:50:11.592Z,6.91
2016-11-13T12:51:26.181Z,6.9
2016-11-13T12:52:40.157Z,6.89
2016-11-13T12:53:54.004Z,6.87
2016-11-13T12:55:09.383Z,6.87
2016-11-13T12:56:23.344Z,6.94
2016-11-13T12:57:37.584Z,6.98
2016-11-13T12:59:06.528Z,7.01
2016-11-13T13:00:20.731Z,7.03
2016-11-13T13:01:35.271Z,7.04
2016-11-13T13:02:49.570Z,7.04
2016-11-13T13:04:03.903Z,6.98
2016-11-13T13:05:32.922Z,6.95
2016-11-13T13:06:47.069Z,6.89
2016-11-13T13:08:01.097Z,6.89
2016-11-13T13:09:17.451Z,6.89
2016-11-13T13:10:32.325Z,6.88
2016-11-13T13:11:46.178Z,6.89
2016-11-13T13:13:14.811Z,6.91
2016-11-13T13:14:29.575Z,6.94
2016-11-13T13:15:43.485Z,6.97
2016-11-13T13:16:57.685Z,7.02
2016-11-13T13:18:11.589Z,7.04
2016-11-13T13:19:40.042Z,7.08
2016-11-13T13:20:54.563Z,7.11
2016-11-13T13:22:10.174Z,7.15
2016-11-13T13:23:24.292Z,7.17
2016-11-13T13:24:37.925Z,7.22
2016-11-13T13:27:35.435Z,7.26
2016-11-13T13:28:49.194Z,7.21
2016-11-13T13:30:17.662Z,7.16
2016-11-13T13:31:31.969Z,7.16
2016-11-13T13:32:46.728Z,7.18
2016-11-13T13:34:00.719Z,7.23
2016-11-13T13:35:14.453Z,7.29
2016-11-13T13:36:28.575Z,7.35
2016-11-13T13:37:43.225Z,7.39
2016-11-13T13:38:58.059Z,7.4
2016-11-13T13:40:11.999Z,7.4
2016-11-13T13:41:26.110Z,7.4
2016-11-13T13:42:40.332Z,7.43
2016-11-13T13:43:54.330Z,7.36
2016-11-13T13:45:08.841Z,7.34
2016-11-13T13:46:23.148Z,7.32
2016-11-13T13:47:36.942Z,7.26
2016-11-13T13:49:05.937Z,7.17
2016-11-13T13:50:20.046Z,7.1
2016-11-13T13:51:34.577Z,7.02
2016-11-13T13:52:48.541Z,7.01
2016-11-13T13:54:02.516Z,7.01
2016-11-13T13:55:16.260Z,7.03
2016-11-13T13:56:30.375Z,7.08
2016-11-13T13:57:44.893Z,7.09
2016-11-13T13:58:59.321Z,7.09
2016-11-13T14:00:13.265Z,7.04
2016-11-13T14:01:27.588Z,7.03
2016-11-13T14:02:41.959Z,7.01
2016-11-13T14:03:55.957Z,7.04
2016-11-13T14:05:13.027Z,7.07
2016-11-13T14:06:26.925Z,7.1
2016-11-13T14:07:40.796Z,7.15
2016-11-13T14:08:55.016Z,7.18
2016-11-13T14:10:10.363Z,7.23
2016-11-13T14:11:25.639Z,7.27
2016-11-13T14:12:42.500Z,7.29
2016-11-13T14:13:59.056Z,7.31
2016-11-13T14:15:16.383Z,7.27
2016-11-13T14:16:50.410Z,7.16
2016-11-13T14:18:04.346Z,7.12
2016-11-13T14:19:18.657Z,7.14
2016-11-13T14:20:33.567Z,7.16
2016-11-13T14:21:48.554Z,7.16
2016-11-13T14:23:03.969Z,7.17
2016-11-13T14:24:17.890Z,7.19
2016-11-13T14:25:32.666Z,7.19
2016-11-13T14:26:47.228Z,7.18
2016-11-13T14:28:03.330Z,7.11
2016-11-13T14:29:32.177Z,7.09
2016-11-13T14:30:46.154Z,7.09
2016-11-13T14:32:00.231Z,7.07
2016-11-13T14:33:14.499Z,7.02
2016-11-13T14:34:28.761Z,6.94
2016-11-13T14:35:42.354Z,6.92
2016-11-13T14:36:56.382Z,6.9
2016-11-13T14:38:10.301Z,6.88
2016-11-13T14:39:24.906Z,6.85
2016-11-13T14:40:38.897Z,6.84
2016-11-13T14:41:56.992Z,6.85
2016-11-13T14:43:17.823Z,6.86
2016-11-13T14:44:32.082Z,6.88
2016-11-13T14:46:01.169Z,6.9
2016-11-13T14:47:15.229Z,6.93
2016-11-13T14:48:44.430Z,7
2016-11-13T14:49:58.849Z,7.01
2016-11-13T14:51:12.708Z,6.98
2016-11-13T14:52:28.509Z,6.96
2016-11-13T14:53:42.748Z,6.92
2016-11-13T14:54:56.698Z,6.83
2016-11-13T14:56:10.653Z,6.75
2016-11-13T14:57:25.023Z,6.67
2016-11-13T14:58:38.986Z,6.57
2016-11-13T15:00:10.721Z,6.52
2016-11-13T15:01:25.513Z,6.52
2016-11-13T15:02:40.320Z,6.55
2016-11-13T15:03:54.848Z,6.58
2016-11-13T15:05:08.522Z,6.62
2016-11-13T15:06:22.191Z,6.58
2016-11-13T15:07:36.913Z,6.56
2016-11-13T15:08:52.894Z,6.56
2016-11-13T15:10:07.032Z,6.59
2016-11-13T15:11:20.882Z,6.57
2016-11-13T15:12:34.890Z,6.52
2016-11-13T15:13:50.487Z,6.5
2016-11-13T15:15:04.797Z,6.48
2016-11-13T15:16:18.877Z,6.43
2016-11-13T15:17:36.949Z,6.4
2016-11-13T15:18:52.036Z,6.37
2016-11-13T15:20:10.024Z,6.29
2016-11-13T15:21:23.921Z,6.22
2016-11-13T15:22:37.656Z,6.18
2016-11-13T15:23:51.950Z,6.18
2016-11-13T15:25:05.702Z,6.17
2016-11-13T15:26:19.773Z,6.15
2016-11-13T15:27:34.483Z,6.12
2016-11-13T15:28:49.244Z,6.11
2016-11-13T15:30:02.767Z,6.1
2016-11-13T15:31:16.477Z,6.13
2016-11-13T15:32:30.361Z,6.16
2016-11-13T15:33:44.104Z,6.19
2016-11-13T15:34:58.392Z,6.21
2016-11-13T15:36:12.460Z,6.18
2016-11-13T15:37:26.025Z,6.13
2016-11-13T15:38:40.039Z,6.13
2016-11-13T15:39:53.667Z,6.12
2016-11-13T15:41:22.868Z,6.09
2016-11-13T15:42:38.349Z,6.09
2016-11-13T15:43:53.087Z,6.09
2016-11-13T15:45:08.196Z,6.12
2016-11-13T15:46:26.549Z,6.13
2016-11-13T15:47:41.917Z,6.15
2016-11-13T19:28:35.820Z,4.77
2016-11-13T19:31:50.713Z,4.89
2016-11-13T19:33:04.746Z,4.81
2016-11-13T19:34:19.881Z,4.7
2016-11-13T19:37:02.555Z,4.53
2016-11-13T19:38:16.652Z,4.5
2016-11-13T19:39:30.607Z,4.46
2016-11-13T19:40:44.810Z,4.4
2016-11-13T19:41:58.549Z,4.36
2016-11-13T19:43:12.688Z,4.32
2016-11-13T19:44:26.685Z,4.3
2016-11-13T19:45:41.292Z,4.27
2016-11-13T19:46:55.386Z,4.26
2016-11-13T19:48:09.323Z,4.24
2016-11-13T19:49:25.168Z,4.2
2016-11-13T19:50:39.013Z,4.16
2016-11-13T19:51:53.227Z,4.13
2016-11-13T19:53:21.762Z,4.06
2016-11-13T19:54:35.593Z,3.99
2016-11-13T19:55:49.443Z,3.95
2016-11-13T19:57:03.630Z,3.95
2016-11-13T19:58:17.307Z,3.88
2016-11-13T19:59:31.336Z,3.85
2016-11-13T20:00:45.102Z,3.81
2016-11-13T20:01:59.800Z,3.79
2016-11-13T20:03:14.563Z,3.74
2016-11-13T20:04:28.877Z,3.71
2016-11-13T20:05:44.853Z,3.67
2016-11-13T20:06:58.881Z,3.66
2016-11-13T20:08:12.674Z,3.63
2016-11-13T20:09:28.318Z,3.61
2016-11-13T20:10:42.209Z,3.61
2016-11-13T20:11:55.897Z,3.64
2016-11-13T20:13:09.740Z,3.63
2016-11-13T20:14:23.553Z,3.62
2016-11-13T20:15:37.841Z,3.6
2016-11-13T20:16:52.011Z,3.59
2016-11-13T20:18:05.809Z,3.55
2016-11-13T20:19:20.220Z,3.54
2016-11-13T20:20:33.849Z,3.53
2016-11-13T20:21:47.829Z,3.54
2016-11-13T20:23:02.299Z,3.52
2016-11-13T20:24:16.317Z,3.52
2016-11-13T20:25:30.293Z,3.52
2016-11-13T20:26:45.044Z,3.48
2016-11-13T20:27:59.020Z,3.49
2016-11-13T20:29:12.918Z,3.48
2016-11-13T20:30:27.352Z,3.43
2016-11-13T20:31:41.422Z,3.42
2016-11-13T20:32:56.651Z,3.39
2016-11-13T20:34:10.983Z,3.39
2016-11-13T20:35:25.020Z,3.41
2016-11-13T20:36:39.364Z,3.46
2016-11-13T20:37:54.171Z,3.5
2016-11-13T20:39:22.800Z,3.48
2016-11-13T20:40:36.986Z,3.44
2016-11-13T20:41:51.236Z,3.43
2016-11-13T20:43:05.949Z,3.43
2016-11-13T20:44:20.250Z,3.46